Racecast

Amber Johnson

Bayfield (CO) · 12 · CO D3A3A · Compare head to head

Athlete rating 109.4 2016 XC season
Best race 109.9 XC
Races 80
Seasons 4 2014 — 2017

RankedNation #59308·CO #1491·CO D3A #383·Team #8 ?

Speed rating — all races

Cross Country

XC speed rating

2016 XC 106.1

Bayfield (CO) · Grade 12

Date Meet Event Result Place Rating Difficulty PR/SR Flags
2016-10-21 Confluence Park 5000m 22:37.4 41st · 2nd on team 109.9 -0.000 ★PR ★CR ★R SR CSR RSR
2016-10-08 Montezuma County Fairgrounds 5000m 25:13.6 13th · 3rd on team 107.1 +0.093 ★CR R CSR RSR
2016-09-24 James M. Robb - Colorado River State Park Connected Lakes Section 5000m 23:11.2 73rd · 3rd on team 105.4 +0.002 PR ★CR SR CSR
2016-09-16 Hillcrest Golf Club 5000m 24:13.5 47th · 2nd on team 105.8 +0.040 ★CR CSR
2016-09-10 Cattails Golf Course 5000m 23:21.9 77th · 3rd on team 106.6 +0.012 PR ★CR R SR CSR RSR
2016-09-03 Colorado Mountain College 5000m 27:31 52nd · 3rd on team 103.0 +0.148 ★CR CSR
2016-08-25 Norris Penrose Event Center 5000m 24:56.2 56th · 3rd on team 104.7 +0.067 ★CR SR CSR RSR

2015 XC 100.4

Bayfield (CO) · Grade 11

Date Meet Event Result Place Rating Difficulty PR/SR Flags
2015-10-23 Pagosa Springs High 5000m 25:53.5 53rd · 4th on team 106.2 +0.117 ★CR CSR
2015-09-26 Pagosa Springs High 5000m 25:58.5 38th · 4th on team 106.3 +0.117 CR R CSR RSR
2015-09-11 Hillcrest Golf Club 5000m 26:33.9 46th · 4th on team 97.2 +0.040 CR CSR
2015-09-05 Cattails Golf Course 5000m 26:26.3 68th · 3rd on team 93.8 +0.012 CR CSR
2015-08-29 Matchett Park 5000m 25:29.1 38th · 4th on team 98.4 +0.016 ★CR SR CSR RSR

2014 XC 100.3

Bayfield (CO) · Grade 10

Date Meet Event Result Place Rating Difficulty PR/SR Flags
2014-10-16 Confluence Park 5000m 24:44.9 40th · 2nd on team 100.3 -0.000 PR CR R SR CSR RSR

Track & Field

TF speed rating

2017 TF

Bayfield (CO) · Grade 12

Date Meet Event Result Place Rating Difficulty PR/SR Flags
2017-05-06 Doherty Spartan Invitational 300mh 46.53 1st · 1st on team -0.004
2017-05-06 Doherty Spartan Invitational 100mh 16.31 10th · 3rd on team -0.004 ★PR SR
2017-05-06 Doherty Spartan Invitational 100mh 16.41 12th · 4th on team -0.004
2017-05-02 High Altitude Challenge 200m 26.25 1st · 1st on team +0.020 ★PR SR
2017-05-02 High Altitude Challenge 300mh 46.2 1st · 1st on team +0.020 ★PR SR
2017-04-08 John Tate Challenge Cup 100mh 16.66 4th · 2nd on team -0.011 PR SR
2017-04-08 John Tate Challenge Cup 100mh 16.87 7th · 4th on team -0.011
2017-04-08 John Tate Challenge Cup 300mh 47.63 1st · 1st on team -0.011 PR SR
2017-04-08 John Tate Challenge Cup 300mh 48.72 2nd · 2nd on team -0.011
2017-04-08 John Tate Challenge Cup 100m 13.43 5th · 2nd on team -0.011
2017-04-08 John Tate Challenge Cup 100m 13.38 4th · 1st on team -0.011
2017-04-08 John Tate Challenge Cup 200m 27.82 4th · 2nd on team -0.011
2017-04-08 John Tate Challenge Cup 200m 26.6 2nd · 1st on team -0.011 PR SR
2017-04-01 Mickey Dunn Invitational 100mh 17.76 6th · 2nd on team -0.010
2017-04-01 Mickey Dunn Invitational 300mh 48.71 3rd · 1st on team -0.010
2017-04-01 Mickey Dunn Invitational 200m 27.49 5th · 1st on team -0.010
2017-04-01 Mickey Dunn Invitational 100m 13.39 4th · 1st on team -0.010
2017-03-17 Bobcat Quad hj NH -0.002
2017-03-17 Bobcat Quad 100m 13.17 3rd · 1st on team -0.002 ★PR SR
2017-03-17 Bobcat Quad 200m 26.73 1st · 1st on team -0.002 PR SR
2017-03-17 Bobcat Quad 100mh 16.95 2nd · 1st on team -0.002 PR SR
2017-03-17 Bobcat Quad 300mh 47.76 1st · 1st on team -0.002 PR SR
2017-03-11 Piedra Vista Invitational hj 4-06.00 -0.005
2017-03-11 Piedra Vista Invitational 100mh 17.94 8th · 2nd on team -0.005 PR SR
2017-03-11 Piedra Vista Invitational 100m 16.63 38th · 2nd on team -0.005 SR
2017-03-11 Piedra Vista Invitational 200m 28.25 2nd · 1st on team -0.005 PR SR
2017-03-11 Piedra Vista Invitational 300mh 49.3 2nd · 1st on team -0.005 PR SR
2017-02-11 Great Southwest Classic Indoor Invitational 60m 8.57 34th · 1st on team -0.025 ★PR SR
2017-02-11 Great Southwest Classic Indoor Invitational 200m 28.39 46th · 16th on team -0.025 PR SR
2017-02-11 Great Southwest Classic Indoor Invitational 60mh 10.69 16th · 1st on team -0.025 ★PR SR
2017-02-11 Great Southwest Classic Indoor Invitational 400m 1:05.74 24th · 1st on team -0.025 ★PR SR

2016 TF

Bayfield (CO) · Grade 11

Date Meet Event Result Place Rating Difficulty PR/SR Flags
2016-05-21 CHSAA 3A State Championships 300mh 50.61 24th · 1st on team -0.011 PR SR
2016-05-07 Terry Allen Invitational 100mh 17.95 4th · 1st on team +0.013 PR SR
2016-05-07 Terry Allen Invitational 300mh 51.72 3rd · 1st on team +0.013
2016-05-06 The Pueblo Twilight 100mh 18.51 10th · 1st on team -0.011 PR SR
2016-05-06 The Pueblo Twilight 300mh 51.19 11th · 1st on team -0.011 PR SR
2016-04-27 Pine River Invitational 300mh 51.75 2nd · 1st on team +0.019 PR SR
2016-04-27 Pine River Invitational 200m 28.48 3rd · 2nd on team +0.019 PR SR
2016-04-22 Aztec B&B Invitational 300mh 52.24 5th · 2nd on team +0.001 PR SR
2016-04-22 Aztec B&B Invitational 200m 28.98 11th · 1st on team +0.001 SR
2016-04-22 Aztec B&B Invitational 100mh 22.69 27th · 2nd on team +0.001
2016-04-22 Aztec B&B Invitational 300mh 51.98 3rd · 1st on team +0.001 PR SR
2016-03-25 Montezuma-Cortez Invitational tj 28-03.75 +0.015
2016-03-25 Montezuma-Cortez Invitational 300mh 56.44 2nd · 1st on team +0.015 PR SR
2016-03-25 Montezuma-Cortez Invitational 100mh 18.81 7th · 1st on team +0.015 PR SR

2015 TF

Bayfield (CO) · Grade 10

Date Meet Event Result Place Rating Difficulty PR/SR Flags
2015-05-09 IML/SPL Invitational hj 4-06.00 +0.028
2015-05-09 IML/SPL Invitational tj 29-03.00 +0.028
2015-05-02 Terry Allen Invitational hj 4-09.00 +0.013
2015-04-18 Pine River Invitational tj 32-01.25 +0.019
2015-04-18 Pine River Invitational 100m 14.11 3rd · 2nd on team +0.019
2015-04-18 Pine River Invitational 200m 31.48 4th · 2nd on team +0.019
2015-04-14 Ron Keller Invitational lj 13-08.50 +0.019
2015-04-14 Ron Keller Invitational 200m 28.95 4th · 1st on team +0.019
2015-04-11 Abel Velasquez Invitational lj 14-04.00 +0.010
2015-04-11 Abel Velasquez Invitational 200m 28.76 3rd · 2nd on team +0.010 PR SR
2015-04-11 Abel Velasquez Invitational 100m 13.96 2nd · 1st on team +0.010
2015-04-04 Bayfield Invitational tj 30-01.00 +0.019
2015-04-04 Bayfield Invitational 200m 29.64 3rd · 1st on team +0.019
2015-04-04 Bayfield Invitational 100m 13.95 4th · 1st on team +0.019 PR SR
2015-03-21 Farmington Invitational lj 14-03.75 +0.019
2015-03-21 Farmington Invitational tj 30-05.00 +0.019
2015-03-21 Farmington Invitational 200m 28.98 3rd · 1st on team +0.019 PR SR
2015-03-21 Farmington Invitational 100m 14.14 8th · 1st on team +0.019 PR SR
2015-03-14 Piedra Vista Invitational lj 14-06.50 -0.005
2015-03-14 Piedra Vista Invitational tj 30-07.00 -0.005
2015-03-14 Piedra Vista Invitational 100m 14.2 16th · 1st on team -0.005 PR SR

2014 TF

Bayfield (CO) · Grade 9

Date Meet Event Result Place Rating Difficulty PR/SR Flags
2014-05-10 Intermountain League Championships hj 4-08.00 +0.020